Mosheim, Tennessee
Current Conditions -  °F | °C
As of 2:55 AM on Friday 19 Dec 2014 (Local Time) from KMOR Reporting Station
Overcast Overcast  
Wind Chill: 32°   Ceiling: 4200
Heat Index: 37°   Visibility: 10mi
Dew Point: 27°   Wind: 7mph
Humidity: 65%   Direction: 350°N
Pressure: 30.17"   Gusts: NA
Location:  36.19°N, 82.96°W
Report Text: KMOR 190755Z AUTO 35006KT 10SM OVC042 03/M03 A3017 RMK
Loading
Personal Weather Stations






























Interactive Weather Map New forecast layout! Learn more

10-Day Weather Forecast

Advertisements
Track Severe Weather on mobile